Time;durP1;ratioP1;P1;durP2;ratioP2;P2;SDS_P1;SDS_P2;PMS_P1;PMS_P2;Temp;Humidity;BMP_temperature;BMP_pressure;BME280_temperature;BME280_humidity;BME280_pressure;Samples;Min_cycle;Max_cycle;Signal;HPM_P1;HPM_P2
2021/09/04 00:00:43;;;;;;;23.40;10.27;;;;;;;;;;4976686;28;20292;-83
2021/09/04 00:03:10;;;;;;;21.53;11.27;;;;;;;;;;4980343;28;20213;-83
2021/09/04 00:05:37;;;;;;;15.47;9.37;;;;;;;;;;4973943;28;20365;-83
2021/09/04 00:08:05;;;;;;;20.30;10.40;;;;;;;;;;4979158;28;20226;-84
2021/09/04 00:10:33;;;;;;;17.17;9.17;;;;;;;;;;4979970;28;20287;-84
2021/09/04 00:13:00;;;;;;;16.40;9.23;;;;;;;;;;4981450;28;20205;-84
2021/09/04 00:15:28;;;;;;;15.80;9.40;;;;;;;;;;4972124;28;20233;-83
2021/09/04 00:17:55;;;;;;;17.50;8.50;;;;;;;;;;4980934;28;20276;-83
2021/09/04 00:20:22;;;;;;;17.33;9.23;;;;;;;;;;4976257;28;20304;-83
2021/09/04 00:22:50;;;;;;;16.97;9.93;;;;;;;;;;4977615;28;20202;-83
2021/09/04 00:25:17;;;;;;;18.53;10.30;;;;;;;;;;4975400;28;20217;-84
2021/09/04 00:27:46;;;;;;;19.97;10.13;;;;;;;;;;4976730;28;20221;-83
2021/09/04 00:30:13;;;;;;;20.83;10.73;;;;;;;;;;4973259;28;20289;-83
2021/09/04 00:32:40;;;;;;;26.13;11.83;;;;;;;;;;4980457;28;20217;-83
2021/09/04 00:35:08;;;;;;;18.23;10.37;;;;;;;;;;4975571;28;20268;-84
2021/09/04 00:37:36;;;;;;;18.97;10.30;;;;;;;;;;4972577;28;20313;-83
2021/09/04 00:40:03;;;;;;;22.13;11.27;;;;;;;;;;4978247;28;20725;-84
2021/09/04 00:42:31;;;;;;;23.83;11.80;;;;;;;;;;4975298;28;20703;-84
2021/09/04 00:44:59;;;;;;;24.70;11.57;;;;;;;;;;4975726;28;20248;-85
2021/09/04 00:47:26;;;;;;;20.90;11.50;;;;;;;;;;4978327;28;20252;-83
2021/09/04 00:49:54;;;;;;;22.60;11.70;;;;;;;;;;4967116;28;20312;-84
2021/09/04 00:52:21;;;;;;;23.00;11.07;;;;;;;;;;4977123;28;20252;-83
2021/09/04 00:54:48;;;;;;;24.33;12.07;;;;;;;;;;4977098;28;20198;-83
2021/09/04 00:57:15;;;;;;;20.50;11.50;;;;;;;;;;4977848;28;20685;-83
2021/09/04 00:59:43;;;;;;;29.23;10.87;;;;;;;;;;4977002;28;20750;-83
2021/09/04 01:02:11;;;;;;;19.67;10.30;;;;;;;;;;4975605;28;20236;-83
2021/09/04 01:04:39;;;;;;;19.67;10.57;;;;;;;;;;4976321;28;20235;-83
2021/09/04 01:07:06;;;;;;;18.17;10.20;;;;;;;;;;4977995;28;20234;-83
2021/09/04 01:09:33;;;;;;;19.67;10.37;;;;;;;;;;4975164;28;20233;-83
2021/09/04 01:12:00;;;;;;;26.13;10.77;;;;;;;;;;4972774;28;20233;-83
2021/09/04 01:14:28;;;;;;;19.80;10.80;;;;;;;;;;4980992;28;20209;-83
2021/09/04 01:16:55;;;;;;;22.97;12.27;;;;;;;;;;4986410;28;20230;-84
2021/09/04 01:19:23;;;;;;;20.57;10.77;;;;;;;;;;4989774;28;20221;-84
2021/09/04 01:21:51;;;;;;;20.50;10.93;;;;;;;;;;4981005;28;20212;-84
2021/09/04 01:24:18;;;;;;;23.30;11.03;;;;;;;;;;4978435;28;20720;-83
2021/09/04 01:26:47;;;;;;;20.77;11.03;;;;;;;;;;4973460;28;20253;-84
2021/09/04 01:29:14;;;;;;;18.90;10.57;;;;;;;;;;4978970;28;20724;-83
2021/09/04 01:31:44;;;;;;;22.37;10.80;;;;;;;;;;4977400;28;20251;-83
2021/09/04 01:34:11;;;;;;;21.73;10.63;;;;;;;;;;4984001;28;20240;-83
2021/09/04 01:36:39;;;;;;;18.07;10.90;;;;;;;;;;4992638;28;20265;-83
2021/09/04 01:39:08;;;;;;;23.60;10.73;;;;;;;;;;4980803;28;20229;-83
2021/09/04 01:41:37;;;;;;;18.30;10.00;;;;;;;;;;4979673;28;20301;-84
2021/09/04 01:44:06;;;;;;;20.13;10.33;;;;;;;;;;4977121;28;20802;-84
2021/09/04 01:46:34;;;;;;;20.80;11.50;;;;;;;;;;4975379;28;20272;-83
2021/09/04 01:49:01;;;;;;;23.07;11.20;;;;;;;;;;4980377;28;20205;-84
2021/09/04 01:51:29;;;;;;;17.57;10.80;;;;;;;;;;4977023;28;20202;-84
2021/09/04 01:53:56;;;;;;;28.00;12.27;;;;;;;;;;4978531;28;20296;-84
2021/09/04 01:56:23;;;;;;;23.70;12.33;;;;;;;;;;4977279;28;20269;-83
2021/09/04 01:58:50;;;;;;;20.50;11.87;;;;;;;;;;4976925;28;20280;-84
2021/09/04 02:01:19;;;;;;;27.20;12.50;;;;;;;;;;4970217;28;20309;-84
2021/09/04 02:03:46;;;;;;;20.50;11.20;;;;;;;;;;4974171;28;20236;-84
2021/09/04 02:06:13;;;;;;;19.97;10.57;;;;;;;;;;4974453;28;20214;-83
2021/09/04 02:08:40;;;;;;;22.60;11.87;;;;;;;;;;4977265;28;20641;-84
2021/09/04 02:11:08;;;;;;;22.97;11.80;;;;;;;;;;4976602;28;20220;-84
2021/09/04 02:13:35;;;;;;;24.10;12.00;;;;;;;;;;4983966;28;20264;-85
2021/09/04 02:16:02;;;;;;;19.90;11.57;;;;;;;;;;4983332;28;20351;-83
2021/09/04 02:18:33;;;;;;;18.53;10.80;;;;;;;;;;4983256;28;20316;-84
2021/09/04 02:21:03;;;;;;;22.60;11.00;;;;;;;;;;4978417;28;20281;-83
2021/09/04 02:23:30;;;;;;;21.00;11.27;;;;;;;;;;4977661;28;20229;-84
2021/09/04 02:25:57;;;;;;;20.00;10.60;;;;;;;;;;4975250;28;20213;-83
2021/09/04 02:28:24;;;;;;;21.07;11.80;;;;;;;;;;4976880;28;20284;-83
2021/09/04 02:30:52;;;;;;;23.57;11.83;;;;;;;;;;4976501;28;20288;-83
2021/09/04 02:33:19;;;;;;;21.50;11.87;;;;;;;;;;4978435;28;20328;-84
2021/09/04 02:35:47;;;;;;;25.03;12.70;;;;;;;;;;4977164;28;20201;-84
2021/09/04 02:38:18;;;;;;;18.93;11.23;;;;;;;;;;4976086;28;20256;-83
2021/09/04 02:40:45;;;;;;;19.83;12.07;;;;;;;;;;4978059;28;20217;-83
2021/09/04 02:43:12;;;;;;;20.70;11.37;;;;;;;;;;4974609;28;20236;-83
2021/09/04 02:45:39;;;;;;;21.47;11.00;;;;;;;;;;4980489;28;20284;-82
2021/09/04 02:48:07;;;;;;;20.70;11.40;;;;;;;;;;4981499;28;20309;-83
2021/09/04 02:50:34;;;;;;;18.00;9.93;;;;;;;;;;4979723;28;20206;-82
2021/09/04 02:53:06;;;;;;;17.90;10.63;;;;;;;;;;4979123;28;20216;-82
2021/09/04 02:55:34;;;;;;;21.13;11.00;;;;;;;;;;4978788;28;20213;-82
2021/09/04 02:58:01;;;;;;;23.97;11.37;;;;;;;;;;4974662;28;20226;-83
2021/09/04 03:00:29;;;;;;;22.33;10.80;;;;;;;;;;4981362;28;20650;-83
2021/09/04 03:02:56;;;;;;;18.73;10.70;;;;;;;;;;4983010;28;20279;-83
2021/09/04 03:05:24;;;;;;;19.03;10.73;;;;;;;;;;4983719;28;20662;-83
2021/09/04 03:07:51;;;;;;;18.67;9.90;;;;;;;;;;4978888;28;20690;-83
2021/09/04 03:10:20;;;;;;;22.10;11.03;;;;;;;;;;4979880;28;20544;-83
2021/09/04 03:12:47;;;;;;;18.00;10.27;;;;;;;;;;4980859;28;20212;-83
2021/09/04 03:15:14;;;;;;;16.40;9.87;;;;;;;;;;4984158;28;20218;-83
2021/09/04 03:17:41;;;;;;;21.10;10.03;;;;;;;;;;4987257;28;20264;-83
2021/09/04 03:20:09;;;;;;;18.17;10.70;;;;;;;;;;4976339;28;20563;-83
2021/09/04 03:22:37;;;;;;;17.40;9.60;;;;;;;;;;4981033;28;20508;-83
2021/09/04 03:25:04;;;;;;;19.13;9.60;;;;;;;;;;4976314;28;20252;-83
2021/09/04 03:27:33;;;;;;;17.97;9.50;;;;;;;;;;4976256;28;20324;-83
2021/09/04 03:30:00;;;;;;;17.90;9.77;;;;;;;;;;4978067;28;20240;-83
2021/09/04 03:32:27;;;;;;;19.17;10.10;;;;;;;;;;4975850;28;20270;-83
2021/09/04 03:34:55;;;;;;;21.43;10.43;;;;;;;;;;4982875;28;20232;-83
2021/09/04 03:37:22;;;;;;;18.20;9.90;;;;;;;;;;4980622;28;20241;-83
2021/09/04 03:39:49;;;;;;;18.80;10.47;;;;;;;;;;4980895;28;20757;-83
2021/09/04 03:42:17;;;;;;;17.20;9.83;;;;;;;;;;4979284;28;20308;-83
2021/09/04 03:44:45;;;;;;;17.97;10.00;;;;;;;;;;4979627;28;20309;-83
2021/09/04 03:47:12;;;;;;;20.27;11.20;;;;;;;;;;4976686;28;20293;-83
2021/09/04 03:49:40;;;;;;;19.90;9.87;;;;;;;;;;4981153;28;20241;-83
2021/09/04 03:52:07;;;;;;;21.73;9.73;;;;;;;;;;4978390;28;20268;-83
2021/09/04 03:54:34;;;;;;;18.03;10.00;;;;;;;;;;4977555;28;20244;-83
2021/09/04 03:57:01;;;;;;;20.17;10.07;;;;;;;;;;4975430;28;20320;-83
2021/09/04 03:59:29;;;;;;;18.90;9.07;;;;;;;;;;4972732;28;20333;-83
2021/09/04 04:02:13;;;;;;;23.67;10.30;;;;;;;;;;4978006;28;20293;-83
2021/09/04 04:04:41;;;;;;;17.20;9.20;;;;;;;;;;4980076;28;20333;-82
2021/09/04 04:07:08;;;;;;;19.57;9.90;;;;;;;;;;4975400;28;20704;-83
2021/09/04 04:09:35;;;;;;;17.70;9.67;;;;;;;;;;4978710;28;20658;-83
2021/09/04 04:12:03;;;;;;;18.03;10.20;;;;;;;;;;4978601;28;20244;-83
2021/09/04 04:14:30;;;;;;;16.50;9.70;;;;;;;;;;4974446;28;20561;-82
2021/09/04 04:16:58;;;;;;;19.07;9.83;;;;;;;;;;4980792;28;20225;-83
2021/09/04 04:19:26;;;;;;;15.97;9.30;;;;;;;;;;4976568;28;20317;-83
2021/09/04 04:21:53;;;;;;;19.30;9.80;;;;;;;;;;4976511;28;20220;-83
2021/09/04 04:24:20;;;;;;;18.37;9.37;;;;;;;;;;4977664;28;20549;-83
2021/09/04 04:26:47;;;;;;;17.20;9.53;;;;;;;;;;4976326;28;20257;-83
2021/09/04 04:29:14;;;;;;;18.80;8.83;;;;;;;;;;4971024;28;20568;-83
2021/09/04 04:31:42;;;;;;;17.77;8.87;;;;;;;;;;4977479;28;20282;-83
2021/09/04 04:34:10;;;;;;;16.67;9.33;;;;;;;;;;4975217;28;20346;-83
2021/09/04 04:36:37;;;;;;;17.63;9.07;;;;;;;;;;4978279;28;20317;-83
2021/09/04 04:39:05;;;;;;;15.80;8.77;;;;;;;;;;4979553;28;20229;-83
2021/09/04 04:41:32;;;;;;;15.27;8.73;;;;;;;;;;4973903;28;20206;-83
2021/09/04 04:43:59;;;;;;;15.60;9.40;;;;;;;;;;4977270;28;20292;-83
2021/09/04 04:46:26;;;;;;;19.10;9.13;;;;;;;;;;4978323;28;20225;-83
2021/09/04 04:48:53;;;;;;;17.67;9.03;;;;;;;;;;4980462;28;20209;-83
2021/09/04 04:51:22;;;;;;;16.87;9.03;;;;;;;;;;4979721;28;20308;-83
2021/09/04 04:53:49;;;;;;;20.00;9.43;;;;;;;;;;4989228;28;20291;-83
2021/09/04 04:56:16;;;;;;;18.70;9.23;;;;;;;;;;4977477;28;20220;-83
2021/09/04 04:58:43;;;;;;;17.97;9.47;;;;;;;;;;4980750;28;20312;-83
2021/09/04 05:01:11;;;;;;;18.77;9.63;;;;;;;;;;4976010;28;20209;-83
2021/09/04 05:03:38;;;;;;;18.03;9.27;;;;;;;;;;4973338;28;20212;-83
2021/09/04 05:06:05;;;;;;;16.13;8.97;;;;;;;;;;4983486;28;20205;-84
2021/09/04 05:08:34;;;;;;;17.70;8.77;;;;;;;;;;4982773;28;20197;-84
2021/09/04 05:11:01;;;;;;;18.07;9.13;;;;;;;;;;4977186;28;20811;-83
2021/09/04 05:13:28;;;;;;;13.27;8.27;;;;;;;;;;4975829;28;20233;-83
2021/09/04 05:15:55;;;;;;;16.53;8.33;;;;;;;;;;4974813;28;20221;-83
2021/09/04 05:18:23;;;;;;;15.33;8.17;;;;;;;;;;4979578;28;20669;-83
2021/09/04 05:20:52;;;;;;;16.93;9.20;;;;;;;;;;4976875;28;20205;-83
2021/09/04 05:23:19;;;;;;;16.17;9.40;;;;;;;;;;4975114;28;20666;-83
2021/09/04 05:25:48;;;;;;;15.47;8.47;;;;;;;;;;4973365;28;20219;-83
2021/09/04 05:28:15;;;;;;;22.20;8.60;;;;;;;;;;4974034;28;20317;-84
2021/09/04 05:30:42;;;;;;;14.00;8.40;;;;;;;;;;4978326;28;20241;-83
2021/09/04 05:33:09;;;;;;;15.53;8.17;;;;;;;;;;4977143;28;20709;-84
2021/09/04 05:35:37;;;;;;;13.53;7.70;;;;;;;;;;4971780;28;20264;-84
2021/09/04 05:38:04;;;;;;;16.73;7.40;;;;;;;;;;4977235;28;20260;-83
2021/09/04 05:40:31;;;;;;;14.87;7.30;;;;;;;;;;4973203;28;20229;-84
2021/09/04 05:43:00;;;;;;;11.60;6.70;;;;;;;;;;4975297;28;20202;-85
2021/09/04 05:45:27;;;;;;;12.10;6.20;;;;;;;;;;4976752;28;20638;-84
2021/09/04 05:47:54;;;;;;;15.07;6.60;;;;;;;;;;4975275;28;20280;-84
2021/09/04 05:50:21;;;;;;;10.03;6.17;;;;;;;;;;4974036;28;20268;-84
2021/09/04 05:52:48;;;;;;;9.93;5.40;;;;;;;;;;4979090;28;20241;-85
2021/09/04 05:55:16;;;;;;;9.37;5.87;;;;;;;;;;4973539;28;20209;-85
2021/09/04 05:57:43;;;;;;;8.57;5.47;;;;;;;;;;4974944;28;20692;-84
2021/09/04 06:00:12;;;;;;;12.00;5.90;;;;;;;;;;4973267;28;20320;-85
2021/09/04 06:02:40;;;;;;;10.80;5.33;;;;;;;;;;4976090;28;20205;-84
2021/09/04 06:05:08;;;;;;;10.10;5.47;;;;;;;;;;4975597;28;20221;-85
2021/09/04 06:07:35;;;;;;;8.20;5.07;;;;;;;;;;4972685;28;20312;-84
2021/09/04 06:10:02;;;;;;;9.60;5.93;;;;;;;;;;4971549;28;20214;-85
2021/09/04 06:12:29;;;;;;;9.80;5.37;;;;;;;;;;4977502;28;20218;-84
2021/09/04 06:14:56;;;;;;;10.07;5.53;;;;;;;;;;4978361;28;20229;-85
2021/09/04 06:17:26;;;;;;;9.33;5.70;;;;;;;;;;4976271;28;20227;-84
2021/09/04 06:19:53;;;;;;;8.70;5.33;;;;;;;;;;4975295;28;20232;-85
2021/09/04 06:22:20;;;;;;;12.60;5.97;;;;;;;;;;4979208;28;20217;-85
2021/09/04 06:24:48;;;;;;;10.20;5.83;;;;;;;;;;4975765;28;20206;-85
2021/09/04 06:27:15;;;;;;;7.90;5.70;;;;;;;;;;4979871;28;20234;-85
2021/09/04 06:29:42;;;;;;;9.00;5.70;;;;;;;;;;4977021;28;20292;-85
2021/09/04 06:32:09;;;;;;;9.10;5.77;;;;;;;;;;4982025;28;20206;-85
2021/09/04 06:34:40;;;;;;;8.23;5.77;;;;;;;;;;4981640;28;20263;-85
2021/09/04 06:37:07;;;;;;;7.80;5.33;;;;;;;;;;4977389;28;20235;-85
2021/09/04 06:39:34;;;;;;;7.43;5.37;;;;;;;;;;4977738;28;20229;-84
2021/09/04 06:42:02;;;;;;;9.27;5.60;;;;;;;;;;4980909;28;20245;-84
2021/09/04 06:44:29;;;;;;;10.77;6.17;;;;;;;;;;4979415;28;20250;-84
2021/09/04 06:46:56;;;;;;;8.37;5.27;;;;;;;;;;4978936;28;20237;-84
2021/09/04 06:49:23;;;;;;;10.23;5.63;;;;;;;;;;4980747;28;20237;-86
2021/09/04 06:51:52;;;;;;;13.63;5.60;;;;;;;;;;4979304;28;20285;-85
2021/09/04 06:54:24;;;;;;;9.87;5.57;;;;;;;;;;4978573;28;20275;-85
2021/09/04 06:56:52;;;;;;;15.17;5.50;;;;;;;;;;4979728;28;20264;-85
2021/09/04 06:59:19;;;;;;;9.57;5.83;;;;;;;;;;4982349;28;20231;-85
2021/09/04 07:01:47;;;;;;;10.23;5.57;;;;;;;;;;4983725;28;20291;-85
2021/09/04 07:04:14;;;;;;;8.80;5.53;;;;;;;;;;4981920;28;20304;-86
2021/09/04 07:06:42;;;;;;;12.17;5.83;;;;;;;;;;4982898;28;20303;-86
2021/09/04 07:09:11;;;;;;;9.63;5.40;;;;;;;;;;4975108;28;20212;-85
2021/09/04 07:11:39;;;;;;;11.07;5.53;;;;;;;;;;4981384;28;20261;-85
2021/09/04 07:14:06;;;;;;;9.50;5.83;;;;;;;;;;4989191;28;20209;-85
2021/09/04 07:16:33;;;;;;;11.13;6.73;;;;;;;;;;4980602;28;20357;-85
2021/09/04 07:19:00;;;;;;;12.50;6.30;;;;;;;;;;4979518;28;20244;-85
2021/09/04 07:21:27;;;;;;;10.17;6.10;;;;;;;;;;4980719;28;20639;-84
2021/09/04 07:23:55;;;;;;;8.27;5.73;;;;;;;;;;4977857;28;20658;-84
2021/09/04 07:26:23;;;;;;;11.47;6.00;;;;;;;;;;4981049;28;20232;-85
2021/09/04 07:28:51;;;;;;;9.77;5.80;;;;;;;;;;4978329;28;20301;-84
2021/09/04 07:31:18;;;;;;;9.57;5.37;;;;;;;;;;4973883;28;20229;-84
2021/09/04 07:33:45;;;;;;;9.27;5.77;;;;;;;;;;4968665;28;20206;-87
2021/09/04 07:36:12;;;;;;;11.13;5.73;;;;;;;;;;4973262;28;20240;-86
2021/09/04 07:38:40;;;;;;;8.37;5.63;;;;;;;;;;4975593;28;20233;-86
2021/09/04 07:41:07;;;;;;;11.43;5.47;;;;;;;;;;4972448;28;20236;-86
2021/09/04 07:43:35;;;;;;;10.73;5.53;;;;;;;;;;4978130;28;20363;-86
2021/09/04 07:46:03;;;;;;;7.23;4.77;;;;;;;;;;4974316;28;20222;-86
2021/09/04 07:48:30;;;;;;;8.27;5.70;;;;;;;;;;4977849;28;20211;-86
2021/09/04 07:50:57;;;;;;;10.00;5.30;;;;;;;;;;4975534;28;20214;-86
2021/09/04 07:53:25;;;;;;;11.27;5.40;;;;;;;;;;4974951;28;20693;-86
2021/09/04 07:55:52;;;;;;;7.90;4.90;;;;;;;;;;4977866;28;20702;-86
2021/09/04 07:58:19;;;;;;;10.13;5.10;;;;;;;;;;4973876;28;20229;-86
2021/09/04 08:00:48;;;;;;;7.70;4.93;;;;;;;;;;4974127;28;20221;-87
2021/09/04 08:03:15;;;;;;;8.30;5.50;;;;;;;;;;4975533;28;20708;-86
2021/09/04 08:05:43;;;;;;;11.67;5.13;;;;;;;;;;4975962;28;20217;-86
2021/09/04 08:08:10;;;;;;;11.33;5.37;;;;;;;;;;4976630;28;20231;-86
2021/09/04 08:10:39;;;;;;;8.83;4.90;;;;;;;;;;4974539;28;20223;-86
2021/09/04 08:13:08;;;;;;;10.37;5.10;;;;;;;;;;4976995;28;20233;-87
2021/09/04 08:15:36;;;;;;;7.93;5.10;;;;;;;;;;4980577;28;20229;-84
2021/09/04 08:18:04;;;;;;;11.57;5.60;;;;;;;;;;4980885;28;20279;-84
2021/09/04 08:20:32;;;;;;;10.87;5.37;;;;;;;;;;4972957;28;20218;-86
2021/09/04 08:22:59;;;;;;;9.63;5.13;;;;;;;;;;4975067;28;20848;-84
2021/09/04 08:25:27;;;;;;;13.32;5.43;;;;;;;;;;4976430;28;20254;-84
2021/09/04 08:27:54;;;;;;;7.75;5.28;;;;;;;;;;4973554;28;20233;-85
2021/09/04 08:30:21;;;;;;;8.25;5.32;;;;;;;;;;4981437;28;20221;-86
2021/09/04 08:32:48;;;;;;;10.02;5.28;;;;;;;;;;4969147;28;20198;-85
2021/09/04 08:35:17;;;;;;;10.63;5.65;;;;;;;;;;4974128;28;20285;-85
2021/09/04 08:37:44;;;;;;;8.65;5.30;;;;;;;;;;4973881;28;20235;-84
2021/09/04 08:40:12;;;;;;;8.48;5.10;;;;;;;;;;4975870;28;20218;-84
2021/09/04 08:42:41;;;;;;;8.73;5.05;;;;;;;;;;4975050;28;20214;-83
2021/09/04 08:45:10;;;;;;;7.90;4.93;;;;;;;;;;4981148;28;20640;-86
2021/09/04 08:47:37;;;;;;;9.38;4.70;;;;;;;;;;4972898;28;20307;-85
2021/09/04 08:50:05;;;;;;;8.70;4.70;;;;;;;;;;4964731;28;20745;-85
2021/09/04 08:52:34;;;;;;;7.10;4.88;;;;;;;;;;4976910;28;20277;-84
2021/09/04 08:55:01;;;;;;;11.48;4.93;;;;;;;;;;4982734;28;20572;-84
2021/09/04 08:57:28;;;;;;;5.75;4.18;;;;;;;;;;4979817;28;20264;-84
2021/09/04 09:00:00;;;;;;;10.70;5.95;;;;;;;;;;4975858;28;21059;-84
2021/09/04 09:02:28;;;;;;;10.45;7.97;;;;;;;;;;4970420;28;20194;-84
2021/09/04 09:04:59;;;;;;;7.03;4.30;;;;;;;;;;4977282;28;20574;-84
2021/09/04 09:07:39;;;;;;;9.57;5.80;;;;;;;;;;4965053;28;20224;-83
2021/09/04 09:10:07;;;;;;;8.23;4.73;;;;;;;;;;4962558;28;20303;-82
2021/09/04 09:12:34;;;;;;;8.93;5.17;;;;;;;;;;4966730;28;20215;-83
2021/09/04 09:15:02;;;;;;;11.90;5.77;;;;;;;;;;4977066;28;20547;-85
2021/09/04 09:17:29;;;;;;;10.90;6.17;;;;;;;;;;4977812;28;20300;-84
2021/09/04 09:20:04;;;;;;;9.67;5.80;;;;;;;;;;4978151;28;20300;-83
2021/09/04 09:22:42;;;;;;;9.53;5.70;;;;;;;;;;4979100;28;20206;-83
2021/09/04 09:25:14;;;;;;;11.27;5.67;;;;;;;;;;4979463;28;20216;-83
2021/09/04 09:27:56;;;;;;;9.47;5.60;;;;;;;;;;4974146;28;20365;-84
2021/09/04 09:30:30;;;;;;;8.63;5.77;;;;;;;;;;4974743;28;20239;-85
2021/09/04 09:32:57;;;;;;;9.43;5.37;;;;;;;;;;4975074;28;20568;-85
2021/09/04 09:35:30;;;;;;;7.87;5.57;;;;;;;;;;4979487;28;20243;-85
2021/09/04 09:37:57;;;;;;;10.57;5.63;;;;;;;;;;4977236;28;20233;-82
2021/09/04 09:40:27;;;;;;;10.13;6.07;;;;;;;;;;4975477;28;20263;-85
2021/09/04 09:42:54;;;;;;;8.87;5.90;;;;;;;;;;4981904;28;20205;-85
2021/09/04 09:45:21;;;;;;;11.87;5.90;;;;;;;;;;4976252;28;20325;-85
2021/09/04 09:47:52;;;;;;;12.73;6.63;;;;;;;;;;4978442;28;20262;-83
2021/09/04 09:50:19;;;;;;;12.17;6.30;;;;;;;;;;4981744;28;20652;-89
2021/09/04 09:52:46;;;;;;;11.87;5.80;;;;;;;;;;4989592;28;20226;-83
2021/09/04 09:55:17;;;;;;;10.17;5.87;;;;;;;;;;4999264;28;20209;-83
2021/09/04 09:57:46;;;;;;;10.70;5.63;;;;;;;;;;5001592;28;20234;-83
2021/09/04 10:00:14;;;;;;;9.50;5.47;;;;;;;;;;4984181;28;20202;-84
2021/09/04 10:02:41;;;;;;;8.53;5.03;;;;;;;;;;4988843;28;20213;-83
2021/09/04 10:05:09;;;;;;;9.77;5.67;;;;;;;;;;4988390;28;20273;-84
2021/09/04 10:07:37;;;;;;;9.93;5.43;;;;;;;;;;4985572;28;20227;-85
2021/09/04 10:10:05;;;;;;;11.50;5.90;;;;;;;;;;4980441;28;20246;-84
2021/09/04 10:12:33;;;;;;;9.23;5.80;;;;;;;;;;4990158;28;20224;-82
2021/09/04 10:15:01;;;;;;;9.33;5.20;;;;;;;;;;4979821;28;20211;-84
2021/09/04 10:17:28;;;;;;;8.73;5.13;;;;;;;;;;4982874;28;20222;-85
2021/09/04 10:19:56;;;;;;;8.87;5.07;;;;;;;;;;4978771;28;20293;-84
2021/09/04 10:22:23;;;;;;;11.03;5.30;;;;;;;;;;4980897;28;20576;-84
2021/09/04 10:24:51;;;;;;;10.57;5.40;;;;;;;;;;4981838;28;20245;-85
2021/09/04 10:27:29;;;;;;;11.07;5.00;;;;;;;;;;4979610;28;20261;-85
2021/09/04 10:29:57;;;;;;;8.70;5.27;;;;;;;;;;4981887;28;20714;-85
2021/09/04 10:32:25;;;;;;;9.67;5.67;;;;;;;;;;4982012;28;20580;-84
2021/09/04 10:35:04;;;;;;;11.97;6.47;;;;;;;;;;4982283;28;20311;-85
2021/09/04 10:37:32;;;;;;;9.93;5.30;;;;;;;;;;4982130;28;20784;-85
2021/09/04 10:40:00;;;;;;;7.87;5.33;;;;;;;;;;4977813;28;20205;-84
2021/09/04 10:42:28;;;;;;;8.23;5.13;;;;;;;;;;4982563;28;20244;-84
2021/09/04 10:44:58;;;;;;;11.03;5.40;;;;;;;;;;4981501;28;20270;-84
2021/09/04 10:47:27;;;;;;;7.83;5.37;;;;;;;;;;4984427;28;20702;-84
2021/09/04 10:49:56;;;;;;;8.47;4.70;;;;;;;;;;4979358;28;20221;-84
2021/09/04 10:52:50;;;;;;;7.67;4.90;;;;;;;;;;4983703;28;20213;-84
2021/09/04 10:55:18;;;;;;;9.67;5.23;;;;;;;;;;4938647;28;20214;-85
2021/09/04 10:57:47;;;;;;;8.03;5.40;;;;;;;;;;4981406;28;20261;-86
2021/09/04 11:00:24;;;;;;;8.63;4.87;;;;;;;;;;4981788;28;20205;-83
2021/09/04 11:02:54;;;;;;;7.03;5.07;;;;;;;;;;4983625;28;20307;-85
2021/09/04 11:05:34;;;;;;;8.70;5.10;;;;;;;;;;4981183;28;20239;-85
2021/09/04 11:08:04;;;;;;;7.80;4.73;;;;;;;;;;4980070;28;20233;-86
2021/09/04 11:10:31;;;;;;;6.87;4.87;;;;;;;;;;4977812;28;20601;-85
2021/09/04 11:13:05;;;;;;;7.40;4.73;;;;;;;;;;4984626;28;20629;-86
2021/09/04 11:15:33;;;;;;;8.37;5.00;;;;;;;;;;4983563;28;20256;-85
2021/09/04 11:18:02;;;;;;;7.13;5.13;;;;;;;;;;4983813;28;20608;-86
2021/09/04 11:20:29;;;;;;;8.80;5.30;;;;;;;;;;4979901;28;20209;-87
2021/09/04 11:22:57;;;;;;;8.00;4.90;;;;;;;;;;4982249;28;20244;-85
2021/09/04 11:25:24;;;;;;;6.80;4.77;;;;;;;;;;4981944;28;20252;-85
2021/09/04 11:27:52;;;;;;;8.87;5.57;;;;;;;;;;4985191;28;20256;-86
2021/09/04 11:30:20;;;;;;;10.93;5.67;;;;;;;;;;4990713;28;20193;-84
2021/09/04 11:32:47;;;;;;;9.63;4.77;;;;;;;;;;5003052;28;20237;-85
2021/09/04 11:35:16;;;;;;;8.87;5.07;;;;;;;;;;4999614;28;20238;-84
2021/09/04 11:37:44;;;;;;;7.60;4.67;;;;;;;;;;4983908;28;20236;-86
2021/09/04 11:40:13;;;;;;;15.50;5.00;;;;;;;;;;4980719;28;20213;-86
2021/09/04 11:42:41;;;;;;;8.67;4.90;;;;;;;;;;4981919;28;20236;-84
2021/09/04 11:45:09;;;;;;;7.43;4.67;;;;;;;;;;4979100;28;20241;-86
2021/09/04 11:47:37;;;;;;;7.43;4.77;;;;;;;;;;4980730;28;20257;-86
2021/09/04 11:50:05;;;;;;;10.17;5.40;;;;;;;;;;4983677;28;20216;-84
2021/09/04 11:52:35;;;;;;;6.93;4.70;;;;;;;;;;4980773;28;20285;-84
2021/09/04 11:55:10;;;;;;;8.13;4.73;;;;;;;;;;4979937;28;20677;-84
2021/09/04 11:57:38;;;;;;;8.80;5.13;;;;;;;;;;4983726;28;20260;-86
2021/09/04 12:00:07;;;;;;;10.93;4.70;;;;;;;;;;4983625;28;20715;-85
2021/09/04 12:02:35;;;;;;;8.47;4.83;;;;;;;;;;4976720;28;20233;-84
2021/09/04 12:05:04;;;;;;;9.60;4.73;;;;;;;;;;4985592;28;20264;-84
2021/09/04 12:07:31;;;;;;;8.17;5.40;;;;;;;;;;4982946;28;20860;-85
2021/09/04 12:10:02;;;;;;;6.73;4.40;;;;;;;;;;4981725;28;20206;-85
2021/09/04 12:12:29;;;;;;;10.97;4.97;;;;;;;;;;4983433;28;20225;-85
2021/09/04 12:14:57;;;;;;;8.27;4.67;;;;;;;;;;4984589;28;20245;-85
2021/09/04 12:17:24;;;;;;;11.83;4.87;;;;;;;;;;4981640;28;20536;-83
2021/09/04 12:19:52;;;;;;;10.07;4.80;;;;;;;;;;4982818;28;20697;-84
2021/09/04 12:22:20;;;;;;;11.27;5.30;;;;;;;;;;4982605;28;20253;-83
2021/09/04 12:24:47;;;;;;;10.97;5.10;;;;;;;;;;4975298;28;20630;-85
2021/09/04 12:27:15;;;;;;;9.53;4.60;;;;;;;;;;4973552;28;20285;-84
2021/09/04 12:29:46;;;;;;;6.77;4.27;;;;;;;;;;4971033;28;20274;-85
2021/09/04 12:32:14;;;;;;;7.37;4.50;;;;;;;;;;4974835;28;20229;-83
2021/09/04 12:34:42;;;;;;;7.37;4.80;;;;;;;;;;4970619;28;20209;-84
2021/09/04 12:37:24;;;;;;;8.73;5.03;;;;;;;;;;4968807;28;20328;-83
2021/09/04 12:39:51;;;;;;;9.13;4.93;;;;;;;;;;4971107;28;20628;-83
2021/09/04 12:42:20;;;;;;;6.93;4.73;;;;;;;;;;4980708;28;20546;-83
2021/09/04 12:44:48;;;;;;;8.73;4.70;;;;;;;;;;4977557;28;21462;-85
2021/09/04 12:47:16;;;;;;;7.43;4.93;;;;;;;;;;4973716;28;20229;-85
2021/09/04 12:49:52;;;;;;;7.73;4.70;;;;;;;;;;4975583;28;20197;-83
2021/09/04 12:52:24;;;;;;;9.83;5.00;;;;;;;;;;4970580;28;20217;-85
2021/09/04 12:54:56;;;;;;;7.70;4.97;;;;;;;;;;4968827;28;20232;-84
2021/09/04 12:57:25;;;;;;;8.40;4.97;;;;;;;;;;4971103;28;20343;-83
2021/09/04 12:59:53;;;;;;;8.27;5.40;;;;;;;;;;4969480;28;20212;-82
2021/09/04 13:02:22;;;;;;;7.30;4.50;;;;;;;;;;4972228;28;20267;-84
2021/09/04 13:04:50;;;;;;;6.73;4.43;;;;;;;;;;4968808;28;21197;-84
2021/09/04 13:07:17;;;;;;;7.10;4.47;;;;;;;;;;4979230;28;20267;-83
2021/09/04 13:09:45;;;;;;;8.40;5.27;;;;;;;;;;4990151;28;20228;-83
2021/09/04 13:12:13;;;;;;;8.83;5.33;;;;;;;;;;4995570;28;20290;-83
2021/09/04 13:14:41;;;;;;;7.37;4.73;;;;;;;;;;4976544;28;20206;-84
2021/09/04 13:17:09;;;;;;;7.60;4.37;;;;;;;;;;4968660;28;20311;-84
2021/09/04 13:19:37;;;;;;;7.80;4.53;;;;;;;;;;4970956;28;20221;-83
2021/09/04 13:22:04;;;;;;;8.53;5.00;;;;;;;;;;4974197;28;20205;-84
2021/09/04 13:24:31;;;;;;;10.83;4.90;;;;;;;;;;4970731;28;20197;-84
2021/09/04 13:26:59;;;;;;;7.97;4.77;;;;;;;;;;4970453;28;20237;-84
2021/09/04 13:29:26;;;;;;;7.63;5.07;;;;;;;;;;4975130;28;20213;-84
2021/09/04 13:31:54;;;;;;;9.43;4.63;;;;;;;;;;4983220;28;20782;-85
2021/09/04 13:34:22;;;;;;;7.47;4.60;;;;;;;;;;4983502;28;20252;-85
2021/09/04 13:36:49;;;;;;;10.70;4.97;;;;;;;;;;4980989;28;20268;-84
2021/09/04 13:39:16;;;;;;;6.63;4.63;;;;;;;;;;4982249;28;20241;-85
2021/09/04 13:41:44;;;;;;;7.83;5.23;;;;;;;;;;4983878;28;20202;-85
2021/09/04 13:44:11;;;;;;;10.23;5.17;;;;;;;;;;4985137;28;20216;-83
2021/09/04 13:46:38;;;;;;;7.80;5.00;;;;;;;;;;4982407;28;20260;-84
2021/09/04 13:49:07;;;;;;;7.40;4.80;;;;;;;;;;4986622;28;20214;-84
2021/09/04 13:51:35;;;;;;;7.10;4.73;;;;;;;;;;4977286;28;20820;-85
2021/09/04 13:54:02;;;;;;;7.10;4.73;;;;;;;;;;4982339;28;20265;-85
2021/09/04 13:56:29;;;;;;;7.77;4.90;;;;;;;;;;4978648;28;20284;-85
2021/09/04 13:58:56;;;;;;;9.37;4.73;;;;;;;;;;4983674;28;20305;-84
2021/09/04 14:01:24;;;;;;;7.17;4.37;;;;;;;;;;4983293;28;20198;-84
2021/09/04 14:03:51;;;;;;;10.33;4.80;;;;;;;;;;4986966;28;20233;-82
2021/09/04 14:06:20;;;;;;;7.90;4.60;;;;;;;;;;4983017;28;20283;-82
2021/09/04 14:08:47;;;;;;;7.13;4.80;;;;;;;;;;4979994;28;20202;-83
2021/09/04 14:11:14;;;;;;;7.57;4.80;;;;;;;;;;4981344;28;20293;-82
2021/09/04 14:13:41;;;;;;;7.67;4.93;;;;;;;;;;4981005;28;20213;-83
2021/09/04 14:16:08;;;;;;;7.67;4.70;;;;;;;;;;4981011;28;20205;-83
2021/09/04 14:18:36;;;;;;;7.47;5.00;;;;;;;;;;4981215;28;20239;-83
2021/09/04 14:21:03;;;;;;;7.43;4.60;;;;;;;;;;4980885;28;20275;-83
2021/09/04 14:23:31;;;;;;;9.93;5.10;;;;;;;;;;4982775;28;20241;-82
2021/09/04 14:25:59;;;;;;;10.27;5.00;;;;;;;;;;4984285;28;20224;-83
2021/09/04 14:28:26;;;;;;;8.10;4.80;;;;;;;;;;4979663;28;20253;-83
2021/09/04 14:30:53;;;;;;;6.83;4.70;;;;;;;;;;4980383;28;20244;-83
2021/09/04 14:33:21;;;;;;;8.27;4.40;;;;;;;;;;4982157;28;20260;-83
2021/09/04 14:35:50;;;;;;;7.37;5.20;;;;;;;;;;4984733;28;20206;-84
2021/09/04 14:38:17;;;;;;;8.20;4.80;;;;;;;;;;4981644;28;20228;-82